Bridgetown, Canada
Current Conditions -  °F | °C
As of 8:00 AM on Sunday 25 Jan 2015 (Local Time) from CYZX Reporting Station
Broken Clouds Broken Clouds  
Wind Chill: 19°   Ceiling: 2300
Heat Index: 32°   Visibility: 15mi
Dew Point: 28°   Wind: 22mph
Humidity: 87%   Direction: 260°W
Pressure: 29.17"   Gusts: 30mph
Location:  44.85°N, 65.15°W
Report Text: CYZX 251200Z 26019G26KT 15SM BKN023 BKN074 00/M02 A2917 RMK SC6AC2 WNDY HILL 29016G27KT SLP878
Loading
Personal Weather Stations






























Interactive Weather Map New forecast layout! Learn more

10-Day Weather Forecast

Advertisements
Track Severe Weather on mobile